Time;durP1;ratioP1;P1;durP2;ratioP2;P2;SDS_P1;SDS_P2;PMS_P1;PMS_P2;Temp;Humidity;BMP_temperature;BMP_pressure;BME280_temperature;BME280_humidity;BME280_pressure;Samples;Min_cycle;Max_cycle;Signal;HPM_P1;HPM_P2
2023/10/17 00:01:33;;;;;;;;;9.00;9.00;;;;;;;;5054616;28;45378;-63
2023/10/17 00:04:00;;;;;;;;;9.50;9.25;;;;;;;;5054543;28;45384;-63
2023/10/17 00:06:26;;;;;;;;;8.75;8.75;;;;;;;;5057895;28;45403;-63
2023/10/17 00:08:51;;;;;;;;;7.50;7.50;;;;;;;;5057761;28;45372;-62
2023/10/17 00:11:17;;;;;;;;;7.00;6.50;;;;;;;;5058186;28;45460;-61
2023/10/17 00:13:59;;;;;;;;;10.00;10.00;;;;;;;;5057979;28;46494;-63
2023/10/17 00:16:25;;;;;;;;;11.75;10.25;;;;;;;;5057871;28;45444;-63
2023/10/17 00:18:50;;;;;;;;;10.50;9.00;;;;;;;;5058199;28;45365;-63
2023/10/17 00:21:26;;;;;;;;;8.75;8.75;;;;;;;;5057688;28;45589;-63
2023/10/17 00:23:52;;;;;;;;;10.00;8.50;;;;;;;;5057456;28;45508;-62
2023/10/17 00:26:18;;;;;;;;;9.00;8.25;;;;;;;;5039526;28;45371;-63
2023/10/17 00:28:44;;;;;;;;;9.00;8.00;;;;;;;;5057464;28;45523;-63
2023/10/17 00:31:10;;;;;;;;;9.00;8.00;;;;;;;;5057249;28;45427;-63
2023/10/17 00:33:37;;;;;;;;;7.00;7.00;;;;;;;;5057024;28;45466;-63
2023/10/17 00:36:04;;;;;;;;;12.00;8.75;;;;;;;;5057515;28;45417;-63
2023/10/17 00:38:35;;;;;;;;;9.25;9.25;;;;;;;;5057242;28;45423;-63
2023/10/17 00:41:00;;;;;;;;;9.25;8.25;;;;;;;;5057407;28;45436;-63
2023/10/17 00:43:29;;;;;;;;;11.00;8.75;;;;;;;;5039194;28;45573;-63
2023/10/17 00:45:54;;;;;;;;;12.50;9.25;;;;;;;;5059708;28;45391;-63
2023/10/17 00:48:22;;;;;;;;;11.25;10.00;;;;;;;;5077623;28;45371;-63
2023/10/17 00:50:50;;;;;;;;;3.75;3.75;;;;;;;;5077582;28;45776;-63
2023/10/17 00:53:16;;;;;;;;;15.00;12.50;;;;;;;;5077108;28;45492;-63
2023/10/17 00:55:50;;;;;;;;;11.50;9.00;;;;;;;;5077609;28;45513;-63
2023/10/17 00:58:18;;;;;;;;;12.00;12.00;;;;;;;;5077804;28;45487;-63
2023/10/17 01:00:49;;;;;;;;;11.25;10.75;;;;;;;;5059257;28;45524;-63
2023/10/17 01:03:16;;;;;;;;;8.50;8.25;;;;;;;;5077250;28;46544;-63
2023/10/17 01:05:57;;;;;;;;;12.00;9.25;;;;;;;;5059229;28;45901;-63
2023/10/17 01:08:44;;;;;;;;;13.75;11.25;;;;;;;;5077108;28;45487;-62
2023/10/17 01:11:15;;;;;;;;;10.50;8.00;;;;;;;;5077329;28;45461;-63
2023/10/17 01:13:41;;;;;;;;;8.75;8.75;;;;;;;;5077233;28;46193;-62
2023/10/17 01:16:07;;;;;;;;;10.00;9.00;;;;;;;;5077138;28;45273;-62
2023/10/17 01:18:34;;;;;;;;;9.75;9.75;;;;;;;;5059007;28;45653;-63
2023/10/17 01:20:59;;;;;;;;;9.00;8.00;;;;;;;;5077211;28;45527;-63
2023/10/17 01:23:26;;;;;;;;;9.00;7.75;;;;;;;;5077135;28;45395;-63
2023/10/17 01:25:51;;;;;;;;;8.75;7.75;;;;;;;;5059011;28;45436;-63
2023/10/17 01:28:17;;;;;;;;;10.75;10.50;;;;;;;;5077270;28;45439;-63
2023/10/17 01:30:42;;;;;;;;;10.00;10.00;;;;;;;;5077165;28;45629;-63
2023/10/17 01:33:08;;;;;;;;;11.50;9.75;;;;;;;;5077211;28;45533;-63
2023/10/17 01:35:33;;;;;;;;;11.25;9.00;;;;;;;;5076825;28;45430;-63
2023/10/17 01:37:58;;;;;;;;;10.50;10.50;;;;;;;;5076710;28;45571;-63
2023/10/17 01:40:27;;;;;;;;;7.25;7.00;;;;;;;;5058540;28;45409;-63
2023/10/17 01:42:52;;;;;;;;;9.25;7.75;;;;;;;;5076906;28;45637;-63
2023/10/17 01:45:23;;;;;;;;;8.75;8.25;;;;;;;;5076709;28;45355;-63
2023/10/17 01:47:48;;;;;;;;;11.75;9.75;;;;;;;;5057925;28;45383;-63
2023/10/17 01:50:14;;;;;;;;;10.00;10.00;;;;;;;;5038780;28;46107;-63
2023/10/17 01:52:42;;;;;;;;;9.00;9.00;;;;;;;;5055970;28;46083;-63
2023/10/17 01:55:10;;;;;;;;;8.00;7.75;;;;;;;;5056394;28;45329;-63
2023/10/17 01:57:40;;;;;;;;;11.25;10.25;;;;;;;;5056367;28;45411;-63
2023/10/17 02:00:16;;;;;;;;;9.25;9.25;;;;;;;;5056472;28;45492;-63
2023/10/17 02:02:42;;;;;;;;;8.00;8.00;;;;;;;;5056422;28;46213;-63
2023/10/17 02:05:12;;;;;;;;;8.50;8.50;;;;;;;;5038005;28;45705;-63
2023/10/17 02:07:38;;;;;;;;;12.00;9.25;;;;;;;;5055911;28;45368;-63
2023/10/17 02:10:07;;;;;;;;;8.00;7.00;;;;;;;;5055497;28;45401;-63
2023/10/17 02:12:33;;;;;;;;;14.75;8.75;;;;;;;;5055727;28;45519;-63
2023/10/17 02:15:00;;;;;;;;;9.00;7.75;;;;;;;;5037797;28;45462;-63
2023/10/17 02:17:25;;;;;;;;;9.50;8.75;;;;;;;;5056026;28;45694;-62
2023/10/17 02:19:53;;;;;;;;;10.00;9.25;;;;;;;;5055993;28;45321;-63
2023/10/17 02:22:18;;;;;;;;;11.25;11.00;;;;;;;;5055559;28;45547;-63
2023/10/17 02:24:43;;;;;;;;;11.00;8.00;;;;;;;;5055592;28;45352;-63
2023/10/17 02:27:09;;;;;;;;;8.00;8.00;;;;;;;;5055430;28;45577;-63
2023/10/17 02:29:39;;;;;;;;;12.75;10.25;;;;;;;;5055730;28;45368;-63
2023/10/17 02:32:05;;;;;;;;;8.00;8.00;;;;;;;;5055242;28;45607;-63
2023/10/17 02:34:31;;;;;;;;;10.25;9.25;;;;;;;;5055694;28;45488;-63
2023/10/17 02:36:56;;;;;;;;;9.75;8.75;;;;;;;;5055403;28;45524;-63
2023/10/17 02:39:22;;;;;;;;;9.75;9.75;;;;;;;;5055860;28;45547;-63
2023/10/17 02:41:55;;;;;;;;;9.00;9.00;;;;;;;;5055719;28;45443;-63
2023/10/17 02:44:20;;;;;;;;;10.75;10.50;;;;;;;;5055688;28;45442;-63
2023/10/17 02:46:46;;;;;;;;;8.75;8.50;;;;;;;;5065946;28;45325;-63
2023/10/17 02:49:13;;;;;;;;;8.75;8.75;;;;;;;;5075459;28;45615;-63
2023/10/17 02:51:42;;;;;;;;;10.75;8.25;;;;;;;;5075805;28;46653;-62
2023/10/17 02:54:12;;;;;;;;;8.25;8.25;;;;;;;;5075327;28;45338;-63
2023/10/17 02:56:38;;;;;;;;;12.00;10.50;;;;;;;;5075916;28;45578;-63
2023/10/17 02:59:04;;;;;;;;;11.25;10.75;;;;;;;;5075030;28;45730;-63
2023/10/17 03:01:30;;;;;;;;;10.75;9.00;;;;;;;;5056972;28;46167;-63
2023/10/17 03:03:56;;;;;;;;;8.75;8.25;;;;;;;;5075601;28;45476;-63
2023/10/17 03:06:21;;;;;;;;;7.00;7.00;;;;;;;;5057357;28;45276;-63
2023/10/17 03:08:51;;;;;;;;;7.25;7.25;;;;;;;;5075061;28;45560;-63
2023/10/17 03:11:47;;;;;;;;;9.50;8.25;;;;;;;;5075356;28;46454;-63
2023/10/17 03:14:15;;;;;;;;;9.00;9.00;;;;;;;;5075741;28;45395;-63
2023/10/17 03:16:41;;;;;;;;;9.00;8.00;;;;;;;;5075831;28;45365;-63
2023/10/17 03:19:07;;;;;;;;;9.00;8.00;;;;;;;;5056770;28;45315;-63
2023/10/17 03:21:35;;;;;;;;;9.50;8.75;;;;;;;;5075114;28;46519;-63
2023/10/17 03:24:06;;;;;;;;;11.50;10.25;;;;;;;;5074786;28;45431;-63
2023/10/17 03:26:40;;;;;;;;;8.00;8.00;;;;;;;;5075009;28;45369;-63
2023/10/17 03:29:14;;;;;;;;;11.00;9.50;;;;;;;;5075318;28;45290;-63
2023/10/17 03:31:41;;;;;;;;;8.25;7.75;;;;;;;;5075026;28;46483;-63
2023/10/17 03:34:06;;;;;;;;;8.25;8.25;;;;;;;;5074937;28;45458;-63
2023/10/17 03:36:41;;;;;;;;;7.50;7.50;;;;;;;;5075500;28;45421;-63
2023/10/17 03:39:26;;;;;;;;;10.25;8.50;;;;;;;;5073897;28;45302;-63
2023/10/17 03:41:58;;;;;;;;;12.00;8.50;;;;;;;;5074806;28;45443;-62
2023/10/17 03:44:30;;;;;;;;;10.00;8.75;;;;;;;;5074972;28;45470;-63
2023/10/17 03:46:55;;;;;;;;;12.00;10.25;;;;;;;;5063163;28;45489;-63
2023/10/17 03:49:22;;;;;;;;;7.00;6.00;;;;;;;;5036762;28;45471;-62
2023/10/17 03:51:54;;;;;;;;;13.00;9.25;;;;;;;;5054289;28;46001;-63
2023/10/17 03:54:22;;;;;;;;;9.75;8.50;;;;;;;;5054373;28;45581;-63
2023/10/17 03:56:55;;;;;;;;;6.50;6.25;;;;;;;;5054346;28;45465;-63
2023/10/17 03:59:38;;;;;;;;;13.00;9.25;;;;;;;;5054610;28;45325;-63
2023/10/17 04:02:03;;;;;;;;;9.25;9.00;;;;;;;;5054203;28;46040;-63
2023/10/17 04:04:46;;;;;;;;;9.50;8.75;;;;;;;;5053915;28;45463;-63
2023/10/17 04:07:11;;;;;;;;;9.50;8.50;;;;;;;;5054242;28;45429;-63
2023/10/17 04:09:49;;;;;;;;;9.25;8.25;;;;;;;;5054431;28;45275;-63
2023/10/17 04:12:20;;;;;;;;;4.25;4.00;;;;;;;;5053772;28;46409;-63
2023/10/17 04:14:53;;;;;;;;;10.25;8.50;;;;;;;;5037285;28;45378;-63
2023/10/17 04:17:24;;;;;;;;;11.00;9.25;;;;;;;;5035684;28;45534;-63
2023/10/17 04:19:49;;;;;;;;;12.50;11.00;;;;;;;;5035727;28;45410;-63
2023/10/17 04:22:20;;;;;;;;;10.50;9.50;;;;;;;;5053470;28;45486;-63
2023/10/17 04:24:48;;;;;;;;;14.75;13.00;;;;;;;;5054240;28;45403;-63
2023/10/17 04:29:44;;;;;;;;;14.00;12.75;;;;;;;;5053937;28;45415;-63
2023/10/17 04:32:13;;;;;;;;;17.00;14.25;;;;;;;;5053968;28;45574;-63
2023/10/17 04:34:45;;;;;;;;;11.00;8.25;;;;;;;;5035310;28;45422;-63
2023/10/17 04:37:16;;;;;;;;;11.25;8.00;;;;;;;;5053402;28;45336;-63
2023/10/17 04:39:48;;;;;;;;;11.00;10.50;;;;;;;;5053778;28;45425;-63
2023/10/17 04:42:19;;;;;;;;;11.50;9.00;;;;;;;;5053443;28;45523;-63
2023/10/17 04:44:51;;;;;;;;;13.00;12.00;;;;;;;;5053854;28;45291;-63
2023/10/17 04:49:54;;;;;;;;;15.50;14.00;;;;;;;;5073871;27;45402;-62
2023/10/17 04:52:29;;;;;;;;;11.50;11.00;;;;;;;;5076296;28;45415;-63
2023/10/17 04:54:58;;;;;;;;;13.50;12.75;;;;;;;;5077162;28;45363;-63
2023/10/17 04:57:47;;;;;;;;;12.75;12.75;;;;;;;;5077223;28;45429;-63
2023/10/17 05:00:21;;;;;;;;;13.75;13.25;;;;;;;;5077058;28;45359;-63
2023/10/17 05:03:02;;;;;;;;;11.50;11.50;;;;;;;;5076275;28;45434;-63
2023/10/17 05:05:40;;;;;;;;;10.50;10.50;;;;;;;;5077123;28;45320;-63
2023/10/17 05:08:18;;;;;;;;;14.50;12.50;;;;;;;;5057624;28;45461;-63
2023/10/17 06:18:48;;;;;;;;;19.00;17.00;;;;;;;;5054520;28;45751;-63
2023/10/17 06:21:18;;;;;;;;;19.67;18.67;;;;;;;;5055001;28;45497;-63
2023/10/17 06:34:18;;;;;;;;;17.00;15.00;;;;;;;;5054993;28;45344;-63
2023/10/17 06:36:44;;;;;;;;;18.00;14.33;;;;;;;;5054484;28;45464;-63
2023/10/17 06:39:17;;;;;;;;;17.00;14.25;;;;;;;;5054619;28;46548;-63
2023/10/17 06:41:44;;;;;;;;;18.00;16.00;;;;;;;;5054686;28;45451;-63
2023/10/17 06:44:10;;;;;;;;;16.67;16.00;;;;;;;;5054659;28;45413;-64
2023/10/17 06:46:58;;;;;;;;;15.50;14.25;;;;;;;;5062298;28;45439;-64
2023/10/17 06:54:52;;;;;;;;;17.25;16.50;;;;;;;;5073966;28;45515;-64
2023/10/17 06:57:23;;;;;;;;;17.00;13.33;;;;;;;;5073638;28;45387;-63
2023/10/17 06:59:52;;;;;;;;;20.50;18.50;;;;;;;;5073732;28;46213;-63
2023/10/17 07:02:41;;;;;;;;;20.67;20.67;;;;;;;;5073340;28;45372;-62
2023/10/17 07:05:07;;;;;;;;;15.00;14.00;;;;;;;;5073663;28;45486;-64
2023/10/17 07:07:45;;;;;;;;;22.33;22.33;;;;;;;;5054798;28;45768;-62
2023/10/17 07:10:17;;;;;;;;;18.00;17.33;;;;;;;;5073456;28;46333;-62
2023/10/17 07:12:50;;;;;;;;;21.00;21.00;;;;;;;;5074192;28;45470;-63
2023/10/17 07:15:18;;;;;;;;;24.00;20.33;;;;;;;;5073764;28;45375;-63
2023/10/17 07:17:49;;;;;;;;;19.67;18.00;;;;;;;;5074026;28;45445;-63
2023/10/17 07:20:29;;;;;;;;;16.25;16.25;;;;;;;;5073021;28;46294;-63
2023/10/17 07:22:57;;;;;;;;;15.50;15.50;;;;;;;;5073535;28;45467;-63
2023/10/17 07:25:22;;;;;;;;;17.75;16.00;;;;;;;;5055418;28;45393;-63
2023/10/17 07:27:49;;;;;;;;;19.25;17.50;;;;;;;;5054867;28;45470;-63
2023/10/17 07:30:24;;;;;;;;;19.25;19.00;;;;;;;;5073325;28;46342;-63
2023/10/17 07:32:54;;;;;;;;;17.25;15.75;;;;;;;;5073099;28;45406;-63
2023/10/17 07:35:25;;;;;;;;;19.25;16.50;;;;;;;;5074074;28;45491;-63
2023/10/17 07:37:54;;;;;;;;;20.25;18.00;;;;;;;;5072873;28;45380;-62
2023/10/17 07:40:22;;;;;;;;;16.75;14.00;;;;;;;;5072880;28;45396;-63
2023/10/17 07:42:48;;;;;;;;;17.25;14.25;;;;;;;;5073664;28;45827;-63
2023/10/17 07:45:17;;;;;;;;;10.75;8.25;;;;;;;;5073791;28;45542;-63
2023/10/17 07:47:43;;;;;;;;;14.00;13.00;;;;;;;;5055685;28;45388;-63
2023/10/17 07:50:17;;;;;;;;;11.75;10.75;;;;;;;;5053166;28;47349;-63
2023/10/17 07:52:43;;;;;;;;;16.00;14.75;;;;;;;;5052295;28;45478;-63
2023/10/17 07:55:22;;;;;;;;;20.33;20.33;;;;;;;;5052857;28;45374;-63
2023/10/17 07:57:53;;;;;;;;;18.00;18.00;;;;;;;;5053200;28;45406;-63
2023/10/17 08:00:26;;;;;;;;;19.00;19.00;;;;;;;;5035104;28;47182;-62
2023/10/17 08:02:52;;;;;;;;;20.25;18.50;;;;;;;;5053338;28;45345;-63
2023/10/17 08:05:22;;;;;;;;;16.50;16.25;;;;;;;;5053424;28;45396;-63
2023/10/17 08:07:49;;;;;;;;;13.50;13.00;;;;;;;;5053110;28;45314;-63
2023/10/17 08:10:29;;;;;;;;;17.25;16.25;;;;;;;;5052580;28;47459;-63
2023/10/17 08:12:54;;;;;;;;;17.25;17.25;;;;;;;;5053073;28;45500;-63
2023/10/17 08:15:22;;;;;;;;;14.25;13.25;;;;;;;;5053102;28;45324;-64
2023/10/17 08:17:49;;;;;;;;;12.75;11.00;;;;;;;;5053008;28;45321;-63
2023/10/17 08:22:54;;;;;;;;;14.50;13.75;;;;;;;;5052590;28;45487;-63
2023/10/17 08:25:25;;;;;;;;;15.25;14.25;;;;;;;;5052951;28;45388;-63
2023/10/17 08:27:53;;;;;;;;;18.25;13.00;;;;;;;;5056428;28;45528;-63
2023/10/17 08:30:23;;;;;;;;;10.00;9.00;;;;;;;;5056433;28;46011;-63
2023/10/17 08:35:39;;;;;;;;;18.50;12.25;;;;;;;;5055684;28;45444;-63
2023/10/17 08:38:06;;;;;;;;;13.00;13.00;;;;;;;;5055332;28;45424;-63
2023/10/17 08:43:03;;;;;;;;;21.00;18.00;;;;;;;;5055661;28;45483;-63
2023/10/17 08:45:36;;;;;;;;;14.50;13.25;;;;;;;;5055439;28;45391;-63
2023/10/17 08:48:01;;;;;;;;;13.00;12.75;;;;;;;;5075419;28;45451;-63
2023/10/17 08:50:28;;;;;;;;;14.25;12.75;;;;;;;;5074614;28;46579;-63
2023/10/17 08:52:53;;;;;;;;;14.75;13.00;;;;;;;;5074746;28;45405;-63
2023/10/17 08:55:20;;;;;;;;;10.50;10.25;;;;;;;;5075282;28;45423;-63
2023/10/17 08:57:46;;;;;;;;;9.50;8.00;;;;;;;;5075435;28;45318;-63
2023/10/17 09:02:43;;;;;;;;;23.75;22.50;;;;;;;;5074776;28;45533;-63
2023/10/17 09:05:17;;;;;;;;;11.00;11.00;;;;;;;;5075832;28;45412;-63
2023/10/17 09:07:44;;;;;;;;;10.00;9.25;;;;;;;;5074637;28;45441;-63
2023/10/17 09:10:20;;;;;;;;;10.25;10.00;;;;;;;;5075058;28;45740;-64
2023/10/17 09:15:48;;;;;;;;;11.50;11.50;;;;;;;;5075069;28;45460;-63
2023/10/17 09:18:13;;;;;;;;;13.50;11.75;;;;;;;;5075632;28;45361;-63
2023/10/17 09:20:39;;;;;;;;;12.75;12.25;;;;;;;;5075927;28;45369;-63
2023/10/17 09:23:21;;;;;;;;;12.25;9.75;;;;;;;;5075269;28;45580;-63
2023/10/17 09:25:51;;;;;;;;;12.75;12.75;;;;;;;;5075775;28;45385;-63
2023/10/17 09:28:19;;;;;;;;;14.25;13.00;;;;;;;;5075256;28;45478;-63
2023/10/17 09:30:56;;;;;;;;;12.25;12.00;;;;;;;;5056828;28;46807;-63
2023/10/17 09:33:30;;;;;;;;;16.50;14.00;;;;;;;;5075244;28;45459;-63
2023/10/17 09:35:58;;;;;;;;;15.50;14.00;;;;;;;;5075886;28;45423;-62
2023/10/17 09:38:24;;;;;;;;;13.00;11.50;;;;;;;;5074577;28;45377;-62
2023/10/17 09:40:51;;;;;;;;;12.00;12.00;;;;;;;;5057246;28;46921;-62
2023/10/17 09:43:16;;;;;;;;;15.00;13.00;;;;;;;;5057481;28;45333;-63
2023/10/17 09:45:45;;;;;;;;;17.25;13.25;;;;;;;;5074127;28;45305;-63
2023/10/17 09:48:13;;;;;;;;;15.00;12.25;;;;;;;;5054723;28;45497;-63
2023/10/17 09:50:39;;;;;;;;;12.00;10.25;;;;;;;;5055205;28;45719;-63
2023/10/17 09:53:16;;;;;;;;;12.75;12.50;;;;;;;;5054376;28;45431;-63
2023/10/17 09:55:53;;;;;;;;;13.25;12.00;;;;;;;;5054944;28;45291;-63
2023/10/17 09:58:31;;;;;;;;;10.75;10.50;;;;;;;;5036324;28;45378;-63
2023/10/17 10:01:05;;;;;;;;;13.00;13.00;;;;;;;;5054470;28;46115;-63
2023/10/17 10:03:31;;;;;;;;;13.25;12.00;;;;;;;;5054351;28;45456;-63
2023/10/17 10:06:16;;;;;;;;;16.75;14.00;;;;;;;;5036584;28;45337;-63
2023/10/17 10:08:42;;;;;;;;;16.75;16.00;;;;;;;;5035577;28;45469;-63
2023/10/17 10:11:07;;;;;;;;;13.00;13.00;;;;;;;;5054506;28;46140;-63
2023/10/17 10:13:52;;;;;;;;;13.00;13.00;;;;;;;;5054153;28;45432;-63
2023/10/17 10:16:17;;;;;;;;;10.75;10.75;;;;;;;;5054154;28;45500;-63
2023/10/17 10:18:43;;;;;;;;;13.75;12.25;;;;;;;;5054400;28;45378;-63
2023/10/17 10:21:08;;;;;;;;;16.75;14.00;;;;;;;;5036200;28;46863;-63
2023/10/17 10:23:39;;;;;;;;;14.25;12.00;;;;;;;;5054161;28;45420;-64
2023/10/17 10:26:19;;;;;;;;;13.50;11.50;;;;;;;;5054508;28;45361;-63
2023/10/17 10:28:48;;;;;;;;;12.75;12.00;;;;;;;;5053815;28;45397;-63
2023/10/17 10:31:22;;;;;;;;;11.50;10.25;;;;;;;;5035893;28;48181;-63
2023/10/17 10:33:48;;;;;;;;;11.50;10.75;;;;;;;;5054172;28;45511;-62
2023/10/17 10:36:14;;;;;;;;;8.00;8.00;;;;;;;;5054262;28;45449;-64
2023/10/17 10:38:39;;;;;;;;;10.50;7.75;;;;;;;;5035552;28;45815;-63
2023/10/17 10:41:06;;;;;;;;;10.25;8.50;;;;;;;;5053954;28;45660;-63
2023/10/17 10:43:31;;;;;;;;;10.60;10.00;;;;;;;;5053959;28;45514;-63
2023/10/17 10:45:56;;;;;;;;;13.00;10.00;;;;;;;;5056702;28;45469;-63
2023/10/17 10:48:21;;;;;;;;;12.25;11.25;;;;;;;;5073705;28;45586;-63
2023/10/17 10:50:48;;;;;;;;;9.00;9.00;;;;;;;;5074625;28;46312;-63
2023/10/17 10:53:29;;;;;;;;;8.25;7.75;;;;;;;;5073653;28;45419;-63
2023/10/17 10:56:02;;;;;;;;;14.25;11.50;;;;;;;;5056638;28;45688;-63
2023/10/17 10:58:28;;;;;;;;;13.50;11.25;;;;;;;;5074013;28;45433;-63
2023/10/17 11:00:58;;;;;;;;;13.50;12.25;;;;;;;;5056032;28;48280;-63
2023/10/17 11:03:24;;;;;;;;;8.40;8.40;;;;;;;;5074540;28;45408;-63
2023/10/17 11:06:02;;;;;;;;;10.50;9.25;;;;;;;;5074330;28;45373;-63
2023/10/17 11:08:34;;;;;;;;;10.50;10.50;;;;;;;;5074141;28;45571;-64
2023/10/17 11:11:00;;;;;;;;;10.50;9.25;;;;;;;;5074117;28;46139;-64
2023/10/17 11:13:33;;;;;;;;;13.00;8.25;;;;;;;;5055160;28;46091;-64
2023/10/17 11:15:58;;;;;;;;;9.25;9.25;;;;;;;;5073263;28;45392;-64
2023/10/17 11:18:24;;;;;;;;;11.25;10.50;;;;;;;;5073746;28;45640;-64
2023/10/17 11:20:56;;;;;;;;;10.50;9.00;;;;;;;;5055068;28;45555;-64
2023/10/17 11:23:26;;;;;;;;;11.00;9.40;;;;;;;;5073508;28;45386;-64
2023/10/17 11:25:52;;;;;;;;;5.80;5.60;;;;;;;;5074284;28;45329;-64
2023/10/17 11:28:17;;;;;;;;;10.25;8.00;;;;;;;;5055535;28;45641;-63
2023/10/17 11:30:45;;;;;;;;;8.00;4.75;;;;;;;;5074047;28;46455;-63
2023/10/17 11:33:11;;;;;;;;;7.80;7.00;;;;;;;;5074059;28;45401;-63
2023/10/17 11:35:50;;;;;;;;;8.60;7.80;;;;;;;;5073860;28;45391;-63
2023/10/17 11:38:34;;;;;;;;;9.75;8.00;;;;;;;;5073429;28;45389;-63
2023/10/17 11:41:04;;;;;;;;;7.40;6.40;;;;;;;;5073278;28;46162;-64
2023/10/17 11:43:34;;;;;;;;;6.40;6.20;;;;;;;;5054966;28;45729;-63
2023/10/17 11:46:00;;;;;;;;;7.40;7.40;;;;;;;;5069789;28;45473;-63
2023/10/17 11:48:54;;;;;;;;;13.00;12.25;;;;;;;;5052571;28;45325;-63
2023/10/17 11:51:18;;;;;;;;;8.00;7.20;;;;;;;;5052569;28;46040;-63
2023/10/17 11:54:08;;;;;;;;;7.00;7.00;;;;;;;;5052405;28;45475;-63
2023/10/17 11:56:34;;;;;;;;;9.80;6.80;;;;;;;;5053372;28;45385;-63
2023/10/17 11:59:01;;;;;;;;;11.25;9.00;;;;;;;;5035288;28;45584;-63
2023/10/17 12:01:27;;;;;;;;;6.00;5.60;;;;;;;;5055441;28;45564;-63
2023/10/17 12:03:53;;;;;;;;;7.00;6.00;;;;;;;;5057066;28;45439;-63
2023/10/17 12:06:21;;;;;;;;;10.00;8.25;;;;;;;;5057028;28;45482;-62
2023/10/17 12:08:47;;;;;;;;;7.00;7.00;;;;;;;;5056783;28;45246;-63
2023/10/17 12:11:12;;;;;;;;;9.00;8.00;;;;;;;;5056341;28;46047;-63
2023/10/17 12:13:37;;;;;;;;;4.50;3.50;;;;;;;;5056776;28;45338;-63
2023/10/17 12:16:08;;;;;;;;;6.25;5.25;;;;;;;;5056573;28;45458;-63
2023/10/17 12:18:34;;;;;;;;;6.00;6.00;;;;;;;;5037812;28;45581;-63
2023/10/17 12:21:01;;;;;;;;;8.25;6.25;;;;;;;;5056246;28;46462;-62
2023/10/17 12:23:29;;;;;;;;;6.60;6.60;;;;;;;;5056155;28;45366;-64
2023/10/17 12:25:55;;;;;;;;;7.20;6.40;;;;;;;;5038340;28;45417;-63
2023/10/17 12:28:20;;;;;;;;;7.75;5.25;;;;;;;;5055645;28;45619;-63
2023/10/17 12:30:45;;;;;;;;;6.50;5.00;;;;;;;;5056211;28;46496;-63
2023/10/17 12:33:11;;;;;;;;;9.00;7.50;;;;;;;;5056488;28;45445;-64
2023/10/17 12:35:37;;;;;;;;;7.00;6.25;;;;;;;;5056396;28;45393;-62
2023/10/17 12:38:14;;;;;;;;;6.00;5.80;;;;;;;;5055808;28;45599;-63
2023/10/17 12:40:42;;;;;;;;;4.60;4.60;;;;;;;;5037618;28;45448;-63
2023/10/17 12:43:11;;;;;;;;;7.80;6.80;;;;;;;;5055456;28;45365;-62
2023/10/17 12:45:36;;;;;;;;;8.00;7.00;;;;;;;;5055871;28;45431;-64
2023/10/17 12:48:01;;;;;;;;;7.00;7.00;;;;;;;;5076190;28;45543;-63
2023/10/17 12:50:27;;;;;;;;;9.25;8.00;;;;;;;;5075670;28;46691;-63
2023/10/17 12:52:53;;;;;;;;;5.25;5.25;;;;;;;;5075241;28;45420;-63
2023/10/17 12:55:19;;;;;;;;;8.00;7.00;;;;;;;;5076235;28;45444;-63
2023/10/17 12:57:44;;;;;;;;;8.40;7.60;;;;;;;;5075729;28;45481;-63
2023/10/17 13:00:10;;;;;;;;;7.75;7.75;;;;;;;;5076428;28;46411;-63
2023/10/17 13:02:38;;;;;;;;;7.60;5.20;;;;;;;;5076364;28;45372;-62
2023/10/17 13:05:05;;;;;;;;;7.00;6.00;;;;;;;;5076322;28;45305;-64
2023/10/17 13:07:30;;;;;;;;;6.40;6.00;;;;;;;;5075959;28;45376;-64
2023/10/17 13:09:55;;;;;;;;;7.00;5.50;;;;;;;;5075377;28;45357;-64
2023/10/17 13:12:20;;;;;;;;;6.75;6.75;;;;;;;;5075839;28;45396;-63
2023/10/17 13:14:46;;;;;;;;;4.50;4.50;;;;;;;;5076553;28;45356;-64
2023/10/17 13:17:13;;;;;;;;;7.25;7.25;;;;;;;;5075600;28;45391;-62
2023/10/17 13:19:42;;;;;;;;;7.60;7.20;;;;;;;;5075569;28;46625;-63
2023/10/17 13:22:08;;;;;;;;;6.00;5.00;;;;;;;;5075351;28;45509;-63
2023/10/17 13:24:34;;;;;;;;;6.50;5.50;;;;;;;;5075854;28;45345;-63
2023/10/17 13:27:00;;;;;;;;;6.60;6.00;;;;;;;;5075855;28;45391;-63
2023/10/17 13:29:26;;;;;;;;;7.00;6.00;;;;;;;;5075640;28;45513;-63
2023/10/17 13:31:51;;;;;;;;;6.20;4.80;;;;;;;;5075514;28;45458;-63
2023/10/17 13:34:22;;;;;;;;;7.00;6.00;;;;;;;;5075380;28;45993;-63
2023/10/17 13:36:47;;;;;;;;;7.20;5.60;;;;;;;;5074787;28;45332;-63
2023/10/17 13:39:13;;;;;;;;;29.50;27.25;;;;;;;;5075053;28;46299;-63
2023/10/17 13:41:38;;;;;;;;;10.40;10.20;;;;;;;;5075320;28;45376;-63
2023/10/17 13:44:04;;;;;;;;;7.50;7.50;;;;;;;;5075992;28;45402;-63
2023/10/17 13:46:32;;;;;;;;;7.25;7.25;;;;;;;;5067784;28;45262;-62
2023/10/17 13:48:58;;;;;;;;;12.60;9.00;;;;;;;;5054865;28;45382;-62
2023/10/17 13:51:23;;;;;;;;;11.00;7.00;;;;;;;;5054597;28;45477;-64
2023/10/17 13:53:50;;;;;;;;;9.25;8.25;;;;;;;;5055057;28;45530;-62
2023/10/17 13:56:18;;;;;;;;;9.60;5.60;;;;;;;;5054711;28;45615;-62
2023/10/17 13:58:44;;;;;;;;;6.00;4.80;;;;;;;;5054821;28;45487;-63
2023/10/17 14:01:27;;;;;;;;;8.00;7.00;;;;;;;;5055340;28;45340;-63
2023/10/17 14:03:54;;;;;;;;;7.60;5.60;;;;;;;;5055224;28;45377;-63
2023/10/17 14:06:20;;;;;;;;;6.00;5.00;;;;;;;;5054773;28;45405;-63
2023/10/17 14:08:45;;;;;;;;;5.75;5.75;;;;;;;;5054486;28;46197;-62
2023/10/17 14:11:17;;;;;;;;;7.50;6.50;;;;;;;;5054242;28;45351;-63
2023/10/17 14:13:43;;;;;;;;;6.60;6.60;;;;;;;;5054817;28;45487;-63
2023/10/17 14:16:08;;;;;;;;;7.50;5.25;;;;;;;;5055021;28;45366;-62
2023/10/17 14:21:34;;;;;;;;;7.60;6.40;;;;;;;;5037665;28;45438;-64
2023/10/17 14:24:27;;;;;;;;;9.00;7.40;;;;;;;;5054305;28;45370;-63
2023/10/17 14:26:53;;;;;;;;;5.60;5.40;;;;;;;;5036185;28;45429;-63
2023/10/17 14:29:18;;;;;;;;;6.60;6.60;;;;;;;;5054401;28;45626;-62
2023/10/17 14:31:44;;;;;;;;;8.00;6.25;;;;;;;;5054989;28;45436;-62
2023/10/17 14:34:09;;;;;;;;;7.00;6.50;;;;;;;;5054873;28;45389;-62
2023/10/17 14:36:36;;;;;;;;;6.50;6.00;;;;;;;;5054457;28;45440;-62
2023/10/17 14:39:02;;;;;;;;;5.20;5.20;;;;;;;;5054441;28;46550;-63
2023/10/17 14:41:27;;;;;;;;;5.50;5.50;;;;;;;;5053528;28;45361;-63
2023/10/17 14:43:54;;;;;;;;;5.50;5.50;;;;;;;;5054435;28;45370;-64
2023/10/17 14:46:22;;;;;;;;;8.20;6.00;;;;;;;;5059944;28;45555;-63
2023/10/17 14:48:48;;;;;;;;;4.80;4.80;;;;;;;;5074256;28;45388;-64
2023/10/17 14:51:13;;;;;;;;;6.00;6.00;;;;;;;;5074429;28;45506;-64
2023/10/17 14:53:42;;;;;;;;;5.00;5.00;;;;;;;;5073910;28;45353;-63
2023/10/17 14:56:07;;;;;;;;;5.20;5.00;;;;;;;;5073596;28;45481;-64
2023/10/17 14:58:32;;;;;;;;;8.50;7.00;;;;;;;;5073638;28;45409;-63
2023/10/17 15:00:58;;;;;;;;;8.00;7.00;;;;;;;;5074420;28;45503;-63
2023/10/17 15:03:25;;;;;;;;;5.25;5.25;;;;;;;;5073987;28;45382;-63
2023/10/17 15:05:51;;;;;;;;;6.50;6.50;;;;;;;;5055891;28;45516;-62
2023/10/17 15:08:18;;;;;;;;;6.00;5.75;;;;;;;;5073287;28;45447;-63
2023/10/17 15:10:43;;;;;;;;;4.00;4.00;;;;;;;;5073260;28;45414;-63
2023/10/17 15:13:09;;;;;;;;;7.00;6.00;;;;;;;;5074224;28;45393;-63
2023/10/17 15:15:35;;;;;;;;;8.50;7.75;;;;;;;;5073877;28;45514;-63
2023/10/17 15:18:00;;;;;;;;;7.25;6.00;;;;;;;;5073571;28;45933;-63
2023/10/17 15:20:25;;;;;;;;;5.00;5.00;;;;;;;;5073617;28;45380;-63
2023/10/17 15:22:51;;;;;;;;;7.00;7.00;;;;;;;;5055308;28;45373;-63
2023/10/17 15:25:18;;;;;;;;;7.25;6.00;;;;;;;;5073293;28;45508;-63
2023/10/17 15:27:43;;;;;;;;;8.00;8.00;;;;;;;;5073264;28;45371;-64
2023/10/17 15:30:09;;;;;;;;;9.25;7.50;;;;;;;;5073674;28;45368;-64
2023/10/17 15:32:35;;;;;;;;;9.00;7.50;;;;;;;;5055319;28;45368;-64
2023/10/17 15:35:01;;;;;;;;;7.75;7.75;;;;;;;;5073999;28;45472;-64
2023/10/17 15:37:26;;;;;;;;;8.00;6.50;;;;;;;;5073946;28;46552;-64
2023/10/17 15:39:53;;;;;;;;;9.50;5.25;;;;;;;;5055834;28;45394;-64
2023/10/17 15:42:18;;;;;;;;;4.80;4.80;;;;;;;;5055692;28;45416;-65
2023/10/17 15:44:46;;;;;;;;;6.25;5.50;;;;;;;;5055340;28;45559;-63
2023/10/17 15:47:12;;;;;;;;;9.40;7.40;;;;;;;;5059740;28;45512;-65
2023/10/17 15:49:38;;;;;;;;;7.60;7.00;;;;;;;;5053162;28;45343;-62
2023/10/17 15:52:04;;;;;;;;;5.20;5.20;;;;;;;;5052794;28;45406;-63
2023/10/17 15:54:30;;;;;;;;;5.00;5.00;;;;;;;;5052831;28;45330;-64
2023/10/17 15:56:55;;;;;;;;;8.00;6.00;;;;;;;;5052609;28;46314;-63
2023/10/17 15:59:21;;;;;;;;;8.50;7.00;;;;;;;;5052600;28;45419;-63
2023/10/17 16:01:46;;;;;;;;;9.50;7.50;;;;;;;;5052656;28;45405;-63
2023/10/17 16:04:13;;;;;;;;;6.75;6.75;;;;;;;;5052644;28;45428;-63
2023/10/17 16:06:38;;;;;;;;;8.00;6.60;;;;;;;;5065806;28;45570;-63
2023/10/17 16:09:07;;;;;;;;;7.25;7.00;;;;;;;;5072410;28;45417;-63
2023/10/17 16:11:32;;;;;;;;;8.00;7.00;;;;;;;;5072702;28;45348;-63
2023/10/17 16:13:58;;;;;;;;;10.50;9.75;;;;;;;;5072845;28;45651;-63
2023/10/17 16:16:24;;;;;;;;;7.75;7.75;;;;;;;;5072705;28;45346;-64
2023/10/17 16:18:49;;;;;;;;;6.25;6.25;;;;;;;;5072814;28;45420;-64
2023/10/17 16:21:15;;;;;;;;;8.00;7.00;;;;;;;;5073019;28;45521;-63
2023/10/17 16:23:41;;;;;;;;;9.20;9.20;;;;;;;;5072700;28;45340;-63
2023/10/17 16:26:06;;;;;;;;;8.50;7.50;;;;;;;;5054403;28;46855;-63